sensor_id;sensor_type;location;lat;lon;timestamp;temperature;humidity
9527;DHT22;4802;51.494;6.770;2022-07-29T00:01:49;20.50;99.90
9527;DHT22;4802;51.494;6.770;2022-07-29T00:04:20;20.50;99.90
9527;DHT22;4802;51.494;6.770;2022-07-29T00:06:49;20.50;99.90
9527;DHT22;4802;51.494;6.770;2022-07-29T00:09:20;20.40;99.90
9527;DHT22;4802;51.494;6.770;2022-07-29T00:11:51;20.30;99.90
9527;DHT22;4802;51.494;6.770;2022-07-29T00:14:22;20.40;99.90
9527;DHT22;4802;51.494;6.770;2022-07-29T00:16:50;20.40;99.90
9527;DHT22;4802;51.494;6.770;2022-07-29T00:19:20;20.40;99.90
9527;DHT22;4802;51.494;6.770;2022-07-29T00:21:49;20.60;99.90
9527;DHT22;4802;51.494;6.770;2022-07-29T00:24:18;20.60;99.90
9527;DHT22;4802;51.494;6.770;2022-07-29T00:26:47;20.50;99.90
9527;DHT22;4802;51.494;6.770;2022-07-29T00:29:18;20.60;99.90
9527;DHT22;4802;51.494;6.770;2022-07-29T00:32:02;20.20;99.90
9527;DHT22;4802;51.494;6.770;2022-07-29T00:34:31;20.50;99.90
9527;DHT22;4802;51.494;6.770;2022-07-29T00:37:17;20.50;99.90
9527;DHT22;4802;51.494;6.770;2022-07-29T00:39:46;20.40;99.90
9527;DHT22;4802;51.494;6.770;2022-07-29T00:42:15;20.30;99.90
9527;DHT22;4802;51.494;6.770;2022-07-29T00:44:47;20.30;99.90
9527;DHT22;4802;51.494;6.770;2022-07-29T00:47:16;20.10;99.90
9527;DHT22;4802;51.494;6.770;2022-07-29T00:49:46;20.10;99.90
9527;DHT22;4802;51.494;6.770;2022-07-29T00:52:15;20.10;99.90
9527;DHT22;4802;51.494;6.770;2022-07-29T00:54:44;20.20;99.90
9527;DHT22;4802;51.494;6.770;2022-07-29T00:57:12;20.10;99.90
9527;DHT22;4802;51.494;6.770;2022-07-29T00:59:42;20.50;99.90
9527;DHT22;4802;51.494;6.770;2022-07-29T01:02:12;20.10;99.90
9527;DHT22;4802;51.494;6.770;2022-07-29T01:04:42;20.10;99.90
9527;DHT22;4802;51.494;6.770;2022-07-29T01:07:12;20.10;99.90
9527;DHT22;4802;51.494;6.770;2022-07-29T01:09:41;20.20;99.90
9527;DHT22;4802;51.494;6.770;2022-07-29T01:12:15;20.20;99.90
9527;DHT22;4802;51.494;6.770;2022-07-29T01:14:45;20.10;99.90
9527;DHT22;4802;51.494;6.770;2022-07-29T01:17:20;20.20;99.90
9527;DHT22;4802;51.494;6.770;2022-07-29T01:19:56;20.10;99.90
9527;DHT22;4802;51.494;6.770;2022-07-29T01:22:35;20.10;99.90
9527;DHT22;4802;51.494;6.770;2022-07-29T01:25:44;20.10;99.90
9527;DHT22;4802;51.494;6.770;2022-07-29T01:28:51;20.10;99.90
9527;DHT22;4802;51.494;6.770;2022-07-29T01:31:39;20.00;99.90
9527;DHT22;4802;51.494;6.770;2022-07-29T01:34:30;20.10;99.90
9527;DHT22;4802;51.494;6.770;2022-07-29T01:37:06;20.10;99.90
9527;DHT22;4802;51.494;6.770;2022-07-29T01:39:37;20.10;99.90
9527;DHT22;4802;51.494;6.770;2022-07-29T01:42:15;20.00;99.90
9527;DHT22;4802;51.494;6.770;2022-07-29T01:44:55;20.00;99.90
9527;DHT22;4802;51.494;6.770;2022-07-29T01:47:31;20.30;99.90
9527;DHT22;4802;51.494;6.770;2022-07-29T01:50:07;20.00;99.90
9527;DHT22;4802;51.494;6.770;2022-07-29T01:52:42;20.00;99.90
9527;DHT22;4802;51.494;6.770;2022-07-29T01:55:14;20.20;99.90
9527;DHT22;4802;51.494;6.770;2022-07-29T01:57:46;20.10;99.90
9527;DHT22;4802;51.494;6.770;2022-07-29T02:00:18;20.10;99.90
9527;DHT22;4802;51.494;6.770;2022-07-29T02:02:48;20.10;99.90
9527;DHT22;4802;51.494;6.770;2022-07-29T02:05:20;20.10;99.90
9527;DHT22;4802;51.494;6.770;2022-07-29T02:07:51;20.20;99.90
9527;DHT22;4802;51.494;6.770;2022-07-29T02:10:23;20.30;99.90
9527;DHT22;4802;51.494;6.770;2022-07-29T02:12:55;20.20;99.90
9527;DHT22;4802;51.494;6.770;2022-07-29T02:15:28;20.20;99.90
9527;DHT22;4802;51.494;6.770;2022-07-29T02:18:02;20.20;99.90
9527;DHT22;4802;51.494;6.770;2022-07-29T02:20:36;20.20;99.90
9527;DHT22;4802;51.494;6.770;2022-07-29T02:23:07;20.00;99.90
9527;DHT22;4802;51.494;6.770;2022-07-29T02:25:37;20.20;99.90
9527;DHT22;4802;51.494;6.770;2022-07-29T02:28:08;20.20;99.90
9527;DHT22;4802;51.494;6.770;2022-07-29T02:30:40;20.10;99.90
9527;DHT22;4802;51.494;6.770;2022-07-29T02:33:13;20.30;99.90
9527;DHT22;4802;51.494;6.770;2022-07-29T02:35:44;20.30;99.90
9527;DHT22;4802;51.494;6.770;2022-07-29T02:38:15;20.30;99.90
9527;DHT22;4802;51.494;6.770;2022-07-29T02:41:06;20.10;99.90
9527;DHT22;4802;51.494;6.770;2022-07-29T02:43:40;20.50;99.90
9527;DHT22;4802;51.494;6.770;2022-07-29T02:46:16;20.50;99.90
9527;DHT22;4802;51.494;6.770;2022-07-29T02:48:58;20.60;99.90
9527;DHT22;4802;51.494;6.770;2022-07-29T02:51:33;20.50;99.90
9527;DHT22;4802;51.494;6.770;2022-07-29T02:54:14;20.60;99.90
9527;DHT22;4802;51.494;6.770;2022-07-29T02:56:46;20.70;99.90
9527;DHT22;4802;51.494;6.770;2022-07-29T02:59:18;20.70;99.90
9527;DHT22;4802;51.494;6.770;2022-07-29T03:01:52;20.60;99.90
9527;DHT22;4802;51.494;6.770;2022-07-29T03:04:24;20.70;99.90
9527;DHT22;4802;51.494;6.770;2022-07-29T03:06:58;20.70;99.90
9527;DHT22;4802;51.494;6.770;2022-07-29T03:09:28;20.80;99.90
9527;DHT22;4802;51.494;6.770;2022-07-29T03:11:58;20.70;99.90
9527;DHT22;4802;51.494;6.770;2022-07-29T03:14:27;20.80;99.90
9527;DHT22;4802;51.494;6.770;2022-07-29T03:16:58;20.60;99.90
9527;DHT22;4802;51.494;6.770;2022-07-29T03:19:28;20.60;99.90
9527;DHT22;4802;51.494;6.770;2022-07-29T03:22:00;20.60;99.90
9527;DHT22;4802;51.494;6.770;2022-07-29T03:24:32;20.60;99.90
9527;DHT22;4802;51.494;6.770;2022-07-29T03:27:02;20.50;99.90
9527;DHT22;4802;51.494;6.770;2022-07-29T03:29:31;20.50;99.90
9527;DHT22;4802;51.494;6.770;2022-07-29T03:32:05;20.50;99.90
9527;DHT22;4802;51.494;6.770;2022-07-29T03:34:35;19.90;99.90
9527;DHT22;4802;51.494;6.770;2022-07-29T03:37:05;19.40;99.90
9527;DHT22;4802;51.494;6.770;2022-07-29T03:39:40;19.10;99.90
9527;DHT22;4802;51.494;6.770;2022-07-29T03:42:13;19.00;99.90
9527;DHT22;4802;51.494;6.770;2022-07-29T03:44:46;18.70;99.90
9527;DHT22;4802;51.494;6.770;2022-07-29T03:47:22;18.60;99.90
9527;DHT22;4802;51.494;6.770;2022-07-29T03:50:14;18.60;99.90
9527;DHT22;4802;51.494;6.770;2022-07-29T03:52:44;18.60;99.90
9527;DHT22;4802;51.494;6.770;2022-07-29T03:55:14;18.50;99.90
9527;DHT22;4802;51.494;6.770;2022-07-29T03:57:44;18.50;99.90
9527;DHT22;4802;51.494;6.770;2022-07-29T04:00:13;18.50;99.90
9527;DHT22;4802;51.494;6.770;2022-07-29T04:02:46;18.50;99.90
9527;DHT22;4802;51.494;6.770;2022-07-29T04:05:17;18.50;99.90
9527;DHT22;4802;51.494;6.770;2022-07-29T04:07:46;18.40;99.90
9527;DHT22;4802;51.494;6.770;2022-07-29T04:10:16;18.40;99.90
9527;DHT22;4802;51.494;6.770;2022-07-29T04:12:58;18.40;99.90
9527;DHT22;4802;51.494;6.770;2022-07-29T04:15:27;18.40;99.90
9527;DHT22;4802;51.494;6.770;2022-07-29T04:17:59;18.30;99.90
9527;DHT22;4802;51.494;6.770;2022-07-29T04:20:31;18.30;99.90
9527;DHT22;4802;51.494;6.770;2022-07-29T04:23:00;18.30;99.90
9527;DHT22;4802;51.494;6.770;2022-07-29T04:25:29;18.30;1.00
9527;DHT22;4802;51.494;6.770;2022-07-29T04:27:58;18.30;1.00
9527;DHT22;4802;51.494;6.770;2022-07-29T04:30:31;18.30;1.00
9527;DHT22;4802;51.494;6.770;2022-07-29T04:33:03;18.20;1.00
9527;DHT22;4802;51.494;6.770;2022-07-29T04:35:34;18.10;1.00
9527;DHT22;4802;51.494;6.770;2022-07-29T04:38:11;18.10;1.00
9527;DHT22;4802;51.494;6.770;2022-07-29T04:40:43;17.90;1.00
9527;DHT22;4802;51.494;6.770;2022-07-29T04:43:13;17.70;1.00
9527;DHT22;4802;51.494;6.770;2022-07-29T04:45:49;17.00;1.00
9527;DHT22;4802;51.494;6.770;2022-07-29T04:48:23;17.60;1.00
9527;DHT22;4802;51.494;6.770;2022-07-29T04:50:55;17.50;1.00
9527;DHT22;4802;51.494;6.770;2022-07-29T04:53:24;17.40;1.00
9527;DHT22;4802;51.494;6.770;2022-07-29T04:55:53;17.40;1.00
9527;DHT22;4802;51.494;6.770;2022-07-29T04:58:22;17.30;1.00
9527;DHT22;4802;51.494;6.770;2022-07-29T05:00:51;17.20;1.00
9527;DHT22;4802;51.494;6.770;2022-07-29T05:03:22;17.10;1.00
9527;DHT22;4802;51.494;6.770;2022-07-29T05:05:51;17.10;1.00
9527;DHT22;4802;51.494;6.770;2022-07-29T05:08:20;17.00;1.00
9527;DHT22;4802;51.494;6.770;2022-07-29T05:10:49;17.00;1.00
9527;DHT22;4802;51.494;6.770;2022-07-29T05:13:20;16.60;1.00
9527;DHT22;4802;51.494;6.770;2022-07-29T05:15:50;17.40;1.00
9527;DHT22;4802;51.494;6.770;2022-07-29T05:18:19;18.50;1.00
9527;DHT22;4802;51.494;6.770;2022-07-29T05:20:53;18.40;1.00
9527;DHT22;4802;51.494;6.770;2022-07-29T05:23:22;18.70;1.00
9527;DHT22;4802;51.494;6.770;2022-07-29T05:25:52;18.50;1.00
9527;DHT22;4802;51.494;6.770;2022-07-29T05:28:21;18.50;1.00
9527;DHT22;4802;51.494;6.770;2022-07-29T05:30:50;18.50;1.00
9527;DHT22;4802;51.494;6.770;2022-07-29T05:33:19;18.40;1.00
9527;DHT22;4802;51.494;6.770;2022-07-29T05:36:04;18.20;1.00
9527;DHT22;4802;51.494;6.770;2022-07-29T05:38:35;18.50;1.00
9527;DHT22;4802;51.494;6.770;2022-07-29T05:41:04;18.30;1.00
9527;DHT22;4802;51.494;6.770;2022-07-29T05:43:33;18.30;1.00
9527;DHT22;4802;51.494;6.770;2022-07-29T05:46:05;18.40;1.00
9527;DHT22;4802;51.494;6.770;2022-07-29T05:48:34;18.40;1.00
9527;DHT22;4802;51.494;6.770;2022-07-29T05:51:05;17.90;1.00
9527;DHT22;4802;51.494;6.770;2022-07-29T05:53:34;17.60;1.00
9527;DHT22;4802;51.494;6.770;2022-07-29T05:56:10;17.40;1.00
9527;DHT22;4802;51.494;6.770;2022-07-29T05:58:43;17.60;1.00
9527;DHT22;4802;51.494;6.770;2022-07-29T06:01:13;17.10;1.00
9527;DHT22;4802;51.494;6.770;2022-07-29T06:04:05;17.20;1.00
9527;DHT22;4802;51.494;6.770;2022-07-29T06:07:08;17.20;1.00
9527;DHT22;4802;51.494;6.770;2022-07-29T06:09:49;17.20;1.00
9527;DHT22;4802;51.494;6.770;2022-07-29T06:12:32;17.70;1.00
9527;DHT22;4802;51.494;6.770;2022-07-29T06:15:06;17.20;1.00
9527;DHT22;4802;51.494;6.770;2022-07-29T06:17:41;17.60;1.00
9527;DHT22;4802;51.494;6.770;2022-07-29T06:20:27;17.30;1.00
9527;DHT22;4802;51.494;6.770;2022-07-29T06:23:03;17.30;1.00
9527;DHT22;4802;51.494;6.770;2022-07-29T06:25:34;17.30;1.00
9527;DHT22;4802;51.494;6.770;2022-07-29T06:28:17;17.30;1.00
9527;DHT22;4802;51.494;6.770;2022-07-29T06:30:47;17.30;1.00
9527;DHT22;4802;51.494;6.770;2022-07-29T06:33:19;17.30;1.00
9527;DHT22;4802;51.494;6.770;2022-07-29T06:36:14;17.30;1.00
9527;DHT22;4802;51.494;6.770;2022-07-29T06:39:07;17.40;1.00
9527;DHT22;4802;51.494;6.770;2022-07-29T06:41:51;17.40;1.00
9527;DHT22;4802;51.494;6.770;2022-07-29T06:44:23;17.50;1.00
9527;DHT22;4802;51.494;6.770;2022-07-29T06:47:07;17.50;1.00
9527;DHT22;4802;51.494;6.770;2022-07-29T06:49:40;17.60;1.00
9527;DHT22;4802;51.494;6.770;2022-07-29T06:52:18;17.60;1.00
9527;DHT22;4802;51.494;6.770;2022-07-29T06:55:30;17.40;1.00
9527;DHT22;4802;51.494;6.770;2022-07-29T06:58:19;17.30;1.00
9527;DHT22;4802;51.494;6.770;2022-07-29T07:01:00;17.40;1.00
9527;DHT22;4802;51.494;6.770;2022-07-29T07:03:34;17.40;1.00
9527;DHT22;4802;51.494;6.770;2022-07-29T07:06:03;17.40;1.00
9527;DHT22;4802;51.494;6.770;2022-07-29T07:08:49;17.50;1.00
9527;DHT22;4802;51.494;6.770;2022-07-29T07:11:41;17.40;1.00
9527;DHT22;4802;51.494;6.770;2022-07-29T07:14:25;17.60;1.00
9527;DHT22;4802;51.494;6.770;2022-07-29T07:16:58;17.70;1.00
9527;DHT22;4802;51.494;6.770;2022-07-29T07:19:45;17.80;1.00
9527;DHT22;4802;51.494;6.770;2022-07-29T07:22:27;18.10;1.00
9527;DHT22;4802;51.494;6.770;2022-07-29T07:25:26;18.30;1.00
9527;DHT22;4802;51.494;6.770;2022-07-29T07:32:05;18.10;1.00
9527;DHT22;4802;51.494;6.770;2022-07-29T07:34:45;18.20;1.00
9527;DHT22;4802;51.494;6.770;2022-07-29T07:37:45;18.20;1.00
9527;DHT22;4802;51.494;6.770;2022-07-29T07:40:16;18.30;1.00
9527;DHT22;4802;51.494;6.770;2022-07-29T07:42:52;18.30;1.00
9527;DHT22;4802;51.494;6.770;2022-07-29T07:45:51;18.80;1.00
9527;DHT22;4802;51.494;6.770;2022-07-29T07:48:39;18.40;1.00
9527;DHT22;4802;51.494;6.770;2022-07-29T07:51:20;18.40;1.00
9527;DHT22;4802;51.494;6.770;2022-07-29T07:54:05;18.90;1.00
9527;DHT22;4802;51.494;6.770;2022-07-29T07:56:47;18.60;1.00
9527;DHT22;4802;51.494;6.770;2022-07-29T07:59:19;18.50;1.00
9527;DHT22;4802;51.494;6.770;2022-07-29T08:02:00;18.50;1.00
9527;DHT22;4802;51.494;6.770;2022-07-29T08:04:36;18.80;1.00
9527;DHT22;4802;51.494;6.770;2022-07-29T08:07:09;18.60;1.00
9527;DHT22;4802;51.494;6.770;2022-07-29T08:09:39;18.60;1.00
9527;DHT22;4802;51.494;6.770;2022-07-29T08:12:24;18.60;1.00
9527;DHT22;4802;51.494;6.770;2022-07-29T08:15:26;18.60;1.00
9527;DHT22;4802;51.494;6.770;2022-07-29T08:18:23;18.60;1.00
9527;DHT22;4802;51.494;6.770;2022-07-29T08:21:11;18.30;1.00
9527;DHT22;4802;51.494;6.770;2022-07-29T08:24:01;18.50;1.00
9527;DHT22;4802;51.494;6.770;2022-07-29T08:26:46;18.50;1.00
9527;DHT22;4802;51.494;6.770;2022-07-29T08:29:16;18.50;1.00
9527;DHT22;4802;51.494;6.770;2022-07-29T08:31:52;18.50;1.00
9527;DHT22;4802;51.494;6.770;2022-07-29T08:34:32;18.40;1.00
9527;DHT22;4802;51.494;6.770;2022-07-29T08:37:07;18.20;1.00
9527;DHT22;4802;51.494;6.770;2022-07-29T08:39:39;18.20;1.00
9527;DHT22;4802;51.494;6.770;2022-07-29T08:42:11;18.10;1.00
9527;DHT22;4802;51.494;6.770;2022-07-29T08:44:42;18.10;1.00
9527;DHT22;4802;51.494;6.770;2022-07-29T08:47:33;18.00;1.00
9527;DHT22;4802;51.494;6.770;2022-07-29T08:50:12;18.00;1.00
9527;DHT22;4802;51.494;6.770;2022-07-29T09:00:12;18.40;1.00
9527;DHT22;4802;51.494;6.770;2022-07-29T09:02:57;18.50;1.00
9527;DHT22;4802;51.494;6.770;2022-07-29T09:05:45;18.60;1.00
9527;DHT22;4802;51.494;6.770;2022-07-29T09:08:22;18.80;1.00
9527;DHT22;4802;51.494;6.770;2022-07-29T09:11:04;18.80;1.00
9527;DHT22;4802;51.494;6.770;2022-07-29T09:14:07;18.90;1.00
9527;DHT22;4802;51.494;6.770;2022-07-29T09:27:51;19.40;1.00
9527;DHT22;4802;51.494;6.770;2022-07-29T09:30:21;19.40;1.00
9527;DHT22;4802;51.494;6.770;2022-07-29T09:33:04;19.40;1.00
9527;DHT22;4802;51.494;6.770;2022-07-29T09:36:10;19.70;1.00
9527;DHT22;4802;51.494;6.770;2022-07-29T09:39:09;19.30;1.00
9527;DHT22;4802;51.494;6.770;2022-07-29T09:42:33;19.20;1.00
9527;DHT22;4802;51.494;6.770;2022-07-29T09:52:48;19.20;1.00
9527;DHT22;4802;51.494;6.770;2022-07-29T09:55:20;19.10;1.00
9527;DHT22;4802;51.494;6.770;2022-07-29T09:58:18;19.20;1.00
9527;DHT22;4802;51.494;6.770;2022-07-29T10:00:51;19.40;1.00
9527;DHT22;4802;51.494;6.770;2022-07-29T10:03:23;19.60;1.00
9527;DHT22;4802;51.494;6.770;2022-07-29T10:06:11;19.70;1.00
9527;DHT22;4802;51.494;6.770;2022-07-29T10:15:54;20.10;1.00
9527;DHT22;4802;51.494;6.770;2022-07-29T10:18:56;20.00;1.00
9527;DHT22;4802;51.494;6.770;2022-07-29T10:25:22;19.80;1.00
9527;DHT22;4802;51.494;6.770;2022-07-29T10:28:24;19.80;1.00
9527;DHT22;4802;51.494;6.770;2022-07-29T10:31:29;19.80;1.00
9527;DHT22;4802;51.494;6.770;2022-07-29T10:34:20;19.80;1.00
9527;DHT22;4802;51.494;6.770;2022-07-29T10:36:56;19.70;1.00
9527;DHT22;4802;51.494;6.770;2022-07-29T10:39:45;19.90;1.00
9527;DHT22;4802;51.494;6.770;2022-07-29T10:42:22;20.10;1.00
9527;DHT22;4802;51.494;6.770;2022-07-29T10:45:35;20.30;1.00
9527;DHT22;4802;51.494;6.770;2022-07-29T10:52:55;21.20;1.00
9527;DHT22;4802;51.494;6.770;2022-07-29T10:55:51;22.00;1.00
9527;DHT22;4802;51.494;6.770;2022-07-29T11:02:46;23.70;1.00
9527;DHT22;4802;51.494;6.770;2022-07-29T11:05:59;24.90;1.00
9527;DHT22;4802;51.494;6.770;2022-07-29T11:09:31;25.40;1.00
9527;DHT22;4802;51.494;6.770;2022-07-29T11:15:56;25.90;99.90
9527;DHT22;4802;51.494;6.770;2022-07-29T11:19:27;26.40;99.90
9527;DHT22;4802;51.494;6.770;2022-07-29T11:22:33;26.90;99.90
9527;DHT22;4802;51.494;6.770;2022-07-29T11:29:27;27.00;99.90
9527;DHT22;4802;51.494;6.770;2022-07-29T11:32:28;27.30;99.90
9527;DHT22;4802;51.494;6.770;2022-07-29T11:35:32;27.50;99.90
9527;DHT22;4802;51.494;6.770;2022-07-29T11:38:28;27.50;99.90
9527;DHT22;4802;51.494;6.770;2022-07-29T11:41:25;27.40;99.90
9527;DHT22;4802;51.494;6.770;2022-07-29T11:44:00;27.10;99.90
9527;DHT22;4802;51.494;6.770;2022-07-29T11:47:13;26.90;99.90
9527;DHT22;4802;51.494;6.770;2022-07-29T11:50:08;26.50;99.90
9527;DHT22;4802;51.494;6.770;2022-07-29T11:52:42;26.50;99.90
9527;DHT22;4802;51.494;6.770;2022-07-29T11:55:27;26.10;99.90
9527;DHT22;4802;51.494;6.770;2022-07-29T11:58:22;26.00;99.90
9527;DHT22;4802;51.494;6.770;2022-07-29T12:01:19;25.90;99.90
9527;DHT22;4802;51.494;6.770;2022-07-29T12:04:09;25.50;99.90
9527;DHT22;4802;51.494;6.770;2022-07-29T12:06:57;25.40;99.90
9527;DHT22;4802;51.494;6.770;2022-07-29T12:09:49;25.20;99.90
9527;DHT22;4802;51.494;6.770;2022-07-29T12:12:58;25.10;99.90
9527;DHT22;4802;51.494;6.770;2022-07-29T12:15:42;24.90;99.90
9527;DHT22;4802;51.494;6.770;2022-07-29T12:18:17;24.90;99.90
9527;DHT22;4802;51.494;6.770;2022-07-29T12:21:21;24.90;99.90
9527;DHT22;4802;51.494;6.770;2022-07-29T12:24:02;24.50;99.90
9527;DHT22;4802;51.494;6.770;2022-07-29T12:26:59;24.40;99.90
9527;DHT22;4802;51.494;6.770;2022-07-29T12:29:29;24.40;99.90
9527;DHT22;4802;51.494;6.770;2022-07-29T12:32:16;24.10;99.90
9527;DHT22;4802;51.494;6.770;2022-07-29T12:35:03;24.10;99.90
9527;DHT22;4802;51.494;6.770;2022-07-29T12:38:23;24.00;99.90
9527;DHT22;4802;51.494;6.770;2022-07-29T12:41:20;24.00;99.90
9527;DHT22;4802;51.494;6.770;2022-07-29T12:44:22;24.50;99.90
9527;DHT22;4802;51.494;6.770;2022-07-29T12:47:10;23.70;99.90
9527;DHT22;4802;51.494;6.770;2022-07-29T12:50:12;23.90;99.90
9527;DHT22;4802;51.494;6.770;2022-07-29T12:53:07;23.80;99.90
9527;DHT22;4802;51.494;6.770;2022-07-29T12:55:57;24.00;99.90
9527;DHT22;4802;51.494;6.770;2022-07-29T12:59:14;23.90;99.90
9527;DHT22;4802;51.494;6.770;2022-07-29T13:01:59;24.00;99.90
9527;DHT22;4802;51.494;6.770;2022-07-29T13:04:56;24.30;99.90
9527;DHT22;4802;51.494;6.770;2022-07-29T13:07:36;24.20;99.90
9527;DHT22;4802;51.494;6.770;2022-07-29T13:10:25;24.40;99.90
9527;DHT22;4802;51.494;6.770;2022-07-29T13:13:23;24.60;99.90
9527;DHT22;4802;51.494;6.770;2022-07-29T13:16:15;24.40;99.90
9527;DHT22;4802;51.494;6.770;2022-07-29T13:19:11;24.90;99.90
9527;DHT22;4802;51.494;6.770;2022-07-29T13:21:53;24.70;99.90
9527;DHT22;4802;51.494;6.770;2022-07-29T13:24:25;24.70;99.90
9527;DHT22;4802;51.494;6.770;2022-07-29T13:27:01;24.50;99.90
9527;DHT22;4802;51.494;6.770;2022-07-29T13:33:28;24.40;99.90
9527;DHT22;4802;51.494;6.770;2022-07-29T13:36:11;24.20;99.90
9527;DHT22;4802;51.494;6.770;2022-07-29T13:39:09;24.20;99.90
9527;DHT22;4802;51.494;6.770;2022-07-29T13:41:49;24.20;99.90
9527;DHT22;4802;51.494;6.770;2022-07-29T13:44:26;24.40;99.90
9527;DHT22;4802;51.494;6.770;2022-07-29T13:47:13;24.30;99.90
9527;DHT22;4802;51.494;6.770;2022-07-29T13:50:13;24.40;99.90
9527;DHT22;4802;51.494;6.770;2022-07-29T13:52:51;24.70;99.90
9527;DHT22;4802;51.494;6.770;2022-07-29T13:55:46;24.80;99.90
9527;DHT22;4802;51.494;6.770;2022-07-29T13:59:15;24.60;99.90
9527;DHT22;4802;51.494;6.770;2022-07-29T14:02:38;24.30;99.90
9527;DHT22;4802;51.494;6.770;2022-07-29T14:09:25;24.00;99.90
9527;DHT22;4802;51.494;6.770;2022-07-29T14:12:26;24.10;99.90
9527;DHT22;4802;51.494;6.770;2022-07-29T14:15:12;24.20;99.90
9527;DHT22;4802;51.494;6.770;2022-07-29T14:17:57;24.40;99.90
9527;DHT22;4802;51.494;6.770;2022-07-29T14:21:02;24.20;99.90
9527;DHT22;4802;51.494;6.770;2022-07-29T14:23:49;24.40;99.90
9527;DHT22;4802;51.494;6.770;2022-07-29T14:26:43;24.40;99.90
9527;DHT22;4802;51.494;6.770;2022-07-29T14:29:16;24.30;99.90
9527;DHT22;4802;51.494;6.770;2022-07-29T14:32:02;24.10;99.90
9527;DHT22;4802;51.494;6.770;2022-07-29T14:34:34;24.10;99.90
9527;DHT22;4802;51.494;6.770;2022-07-29T14:37:31;24.10;99.90
9527;DHT22;4802;51.494;6.770;2022-07-29T14:40:10;24.10;99.90
9527;DHT22;4802;51.494;6.770;2022-07-29T14:43:12;24.20;99.90
9527;DHT22;4802;51.494;6.770;2022-07-29T14:45:59;24.00;99.90
9527;DHT22;4802;51.494;6.770;2022-07-29T14:48:39;24.20;99.90
9527;DHT22;4802;51.494;6.770;2022-07-29T14:51:20;24.10;99.90
9527;DHT22;4802;51.494;6.770;2022-07-29T14:54:09;24.20;99.90
9527;DHT22;4802;51.494;6.770;2022-07-29T14:56:48;23.90;99.90
9527;DHT22;4802;51.494;6.770;2022-07-29T14:59:27;24.00;99.90
9527;DHT22;4802;51.494;6.770;2022-07-29T15:01:59;24.00;99.90
9527;DHT22;4802;51.494;6.770;2022-07-29T15:04:33;24.00;99.90
9527;DHT22;4802;51.494;6.770;2022-07-29T15:07:12;24.00;99.90
9527;DHT22;4802;51.494;6.770;2022-07-29T15:09:56;24.20;99.90
9527;DHT22;4802;51.494;6.770;2022-07-29T15:12:42;24.20;99.90
9527;DHT22;4802;51.494;6.770;2022-07-29T15:15:19;24.30;99.90
9527;DHT22;4802;51.494;6.770;2022-07-29T15:17:49;24.10;99.90
9527;DHT22;4802;51.494;6.770;2022-07-29T15:20:22;24.30;99.90
9527;DHT22;4802;51.494;6.770;2022-07-29T15:22:58;24.00;99.90
9527;DHT22;4802;51.494;6.770;2022-07-29T15:25:31;24.10;99.90
9527;DHT22;4802;51.494;6.770;2022-07-29T15:28:05;24.20;99.90
9527;DHT22;4802;51.494;6.770;2022-07-29T15:30:45;24.20;99.90
9527;DHT22;4802;51.494;6.770;2022-07-29T15:33:46;24.30;99.90
9527;DHT22;4802;51.494;6.770;2022-07-29T15:36:44;24.30;99.90
9527;DHT22;4802;51.494;6.770;2022-07-29T15:39:23;24.20;99.90
9527;DHT22;4802;51.494;6.770;2022-07-29T15:41:56;24.30;99.90
9527;DHT22;4802;51.494;6.770;2022-07-29T15:44:32;24.10;99.90
9527;DHT22;4802;51.494;6.770;2022-07-29T15:47:32;24.20;99.90
9527;DHT22;4802;51.494;6.770;2022-07-29T15:50:24;24.20;99.90
9527;DHT22;4802;51.494;6.770;2022-07-29T15:52:57;24.10;99.90
9527;DHT22;4802;51.494;6.770;2022-07-29T15:55:28;24.20;99.90
9527;DHT22;4802;51.494;6.770;2022-07-29T15:58:00;24.10;99.90
9527;DHT22;4802;51.494;6.770;2022-07-29T16:00:44;24.20;99.90
9527;DHT22;4802;51.494;6.770;2022-07-29T16:03:18;24.30;99.90
9527;DHT22;4802;51.494;6.770;2022-07-29T16:05:50;24.50;99.90
9527;DHT22;4802;51.494;6.770;2022-07-29T16:08:30;24.70;99.90
9527;DHT22;4802;51.494;6.770;2022-07-29T16:11:00;24.60;99.90
9527;DHT22;4802;51.494;6.770;2022-07-29T16:13:29;24.50;99.90
9527;DHT22;4802;51.494;6.770;2022-07-29T16:16:01;24.60;99.90
9527;DHT22;4802;51.494;6.770;2022-07-29T16:18:36;24.30;99.90
9527;DHT22;4802;51.494;6.770;2022-07-29T16:21:07;24.20;99.90
9527;DHT22;4802;51.494;6.770;2022-07-29T16:23:42;24.20;99.90
9527;DHT22;4802;51.494;6.770;2022-07-29T16:26:15;24.20;99.90
9527;DHT22;4802;51.494;6.770;2022-07-29T16:28:46;24.20;99.90
9527;DHT22;4802;51.494;6.770;2022-07-29T16:31:18;24.30;99.90
9527;DHT22;4802;51.494;6.770;2022-07-29T16:33:54;24.30;99.90
9527;DHT22;4802;51.494;6.770;2022-07-29T16:36:28;24.40;99.90
9527;DHT22;4802;51.494;6.770;2022-07-29T16:38:58;24.50;99.90
9527;DHT22;4802;51.494;6.770;2022-07-29T16:41:32;24.50;99.90
9527;DHT22;4802;51.494;6.770;2022-07-29T16:44:07;24.60;99.90
9527;DHT22;4802;51.494;6.770;2022-07-29T16:46:39;24.60;99.90
9527;DHT22;4802;51.494;6.770;2022-07-29T16:49:16;24.60;99.90
9527;DHT22;4802;51.494;6.770;2022-07-29T16:51:46;24.60;99.90
9527;DHT22;4802;51.494;6.770;2022-07-29T16:54:16;24.70;99.90
9527;DHT22;4802;51.494;6.770;2022-07-29T16:56:47;24.70;99.90
9527;DHT22;4802;51.494;6.770;2022-07-29T16:59:16;24.80;99.90
9527;DHT22;4802;51.494;6.770;2022-07-29T17:01:46;24.90;99.90
9527;DHT22;4802;51.494;6.770;2022-07-29T17:04:19;24.90;99.90
9527;DHT22;4802;51.494;6.770;2022-07-29T17:06:50;24.70;99.90
9527;DHT22;4802;51.494;6.770;2022-07-29T17:09:22;24.90;99.90
9527;DHT22;4802;51.494;6.770;2022-07-29T17:11:52;25.00;99.90
9527;DHT22;4802;51.494;6.770;2022-07-29T17:14:29;25.00;99.90
9527;DHT22;4802;51.494;6.770;2022-07-29T17:17:08;25.10;99.90
9527;DHT22;4802;51.494;6.770;2022-07-29T17:19:44;25.00;99.90
9527;DHT22;4802;51.494;6.770;2022-07-29T17:22:17;25.10;99.90
9527;DHT22;4802;51.494;6.770;2022-07-29T17:24:47;25.10;99.90
9527;DHT22;4802;51.494;6.770;2022-07-29T17:27:17;25.00;99.90
9527;DHT22;4802;51.494;6.770;2022-07-29T17:29:47;25.00;99.90
9527;DHT22;4802;51.494;6.770;2022-07-29T17:32:18;25.00;99.90
9527;DHT22;4802;51.494;6.770;2022-07-29T17:34:53;25.00;99.90
9527;DHT22;4802;51.494;6.770;2022-07-29T17:37:24;25.10;99.90
9527;DHT22;4802;51.494;6.770;2022-07-29T17:39:55;25.00;99.90
9527;DHT22;4802;51.494;6.770;2022-07-29T17:42:27;25.00;99.90
9527;DHT22;4802;51.494;6.770;2022-07-29T17:44:57;24.90;99.90
9527;DHT22;4802;51.494;6.770;2022-07-29T17:47:38;24.80;99.90
9527;DHT22;4802;51.494;6.770;2022-07-29T17:50:13;25.10;99.90
9527;DHT22;4802;51.494;6.770;2022-07-29T17:52:42;24.80;99.90
9527;DHT22;4802;51.494;6.770;2022-07-29T17:55:13;24.80;99.90
9527;DHT22;4802;51.494;6.770;2022-07-29T17:57:45;24.80;99.90
9527;DHT22;4802;51.494;6.770;2022-07-29T18:00:16;24.60;99.90
9527;DHT22;4802;51.494;6.770;2022-07-29T18:02:47;24.60;99.90
9527;DHT22;4802;51.494;6.770;2022-07-29T18:05:21;24.50;99.90
9527;DHT22;4802;51.494;6.770;2022-07-29T18:07:54;24.60;99.90
9527;DHT22;4802;51.494;6.770;2022-07-29T18:10:25;24.90;99.90
9527;DHT22;4802;51.494;6.770;2022-07-29T18:13:12;24.50;99.90
9527;DHT22;4802;51.494;6.770;2022-07-29T18:15:51;24.50;99.90
9527;DHT22;4802;51.494;6.770;2022-07-29T18:18:27;24.60;99.90
9527;DHT22;4802;51.494;6.770;2022-07-29T18:20:58;24.40;99.90
9527;DHT22;4802;51.494;6.770;2022-07-29T18:23:30;24.50;99.90
9527;DHT22;4802;51.494;6.770;2022-07-29T18:26:03;24.40;99.90
9527;DHT22;4802;51.494;6.770;2022-07-29T18:28:33;24.40;99.90
9527;DHT22;4802;51.494;6.770;2022-07-29T18:31:09;24.30;99.90
9527;DHT22;4802;51.494;6.770;2022-07-29T18:33:53;24.10;99.90